sensor_id;sensor_type;location;lat;lon;timestamp;P1;durP1;ratioP1;P2;durP2;ratioP2
18138;SDS011;9195;53.176;9.486;2022-12-18T00:00:39;4.73;;;4.53;;
18138;SDS011;9195;53.176;9.486;2022-12-18T00:03:06;4.70;;;4.50;;
18138;SDS011;9195;53.176;9.486;2022-12-18T00:05:32;4.50;;;4.30;;
18138;SDS011;9195;53.176;9.486;2022-12-18T00:07:58;4.40;;;4.20;;
18138;SDS011;9195;53.176;9.486;2022-12-18T00:10:23;4.97;;;4.77;;
18138;SDS011;9195;53.176;9.486;2022-12-18T00:12:49;4.67;;;4.47;;
18138;SDS011;9195;53.176;9.486;2022-12-18T00:15:15;4.70;;;4.50;;
18138;SDS011;9195;53.176;9.486;2022-12-18T00:17:40;4.80;;;4.60;;
18138;SDS011;9195;53.176;9.486;2022-12-18T00:20:06;4.60;;;4.40;;
18138;SDS011;9195;53.176;9.486;2022-12-18T00:22:32;4.60;;;4.40;;
18138;SDS011;9195;53.176;9.486;2022-12-18T00:24:58;4.50;;;4.30;;
18138;SDS011;9195;53.176;9.486;2022-12-18T00:27:24;4.70;;;4.50;;
18138;SDS011;9195;53.176;9.486;2022-12-18T00:29:49;4.23;;;4.13;;
18138;SDS011;9195;53.176;9.486;2022-12-18T00:32:15;4.53;;;4.33;;
18138;SDS011;9195;53.176;9.486;2022-12-18T00:34:41;4.60;;;4.40;;
18138;SDS011;9195;53.176;9.486;2022-12-18T00:37:06;4.57;;;4.37;;
18138;SDS011;9195;53.176;9.486;2022-12-18T00:39:32;4.13;;;4.03;;
18138;SDS011;9195;53.176;9.486;2022-12-18T00:41:58;4.50;;;4.30;;
18138;SDS011;9195;53.176;9.486;2022-12-18T00:44:42;4.50;;;4.30;;
18138;SDS011;9195;53.176;9.486;2022-12-18T00:47:07;4.60;;;4.40;;
18138;SDS011;9195;53.176;9.486;2022-12-18T00:49:33;4.70;;;4.50;;
18138;SDS011;9195;53.176;9.486;2022-12-18T00:51:58;4.70;;;4.50;;
18138;SDS011;9195;53.176;9.486;2022-12-18T00:54:24;4.70;;;4.50;;
18138;SDS011;9195;53.176;9.486;2022-12-18T00:56:50;4.60;;;4.40;;
18138;SDS011;9195;53.176;9.486;2022-12-18T00:59:16;4.87;;;4.67;;
18138;SDS011;9195;53.176;9.486;2022-12-18T01:01:42;4.40;;;4.20;;
18138;SDS011;9195;53.176;9.486;2022-12-18T01:04:08;5.10;;;4.90;;
18138;SDS011;9195;53.176;9.486;2022-12-18T01:06:33;4.90;;;4.70;;
18138;SDS011;9195;53.176;9.486;2022-12-18T01:08:59;5.23;;;5.03;;
18138;SDS011;9195;53.176;9.486;2022-12-18T01:11:25;4.67;;;4.47;;
18138;SDS011;9195;53.176;9.486;2022-12-18T01:13:51;5.03;;;4.83;;
18138;SDS011;9195;53.176;9.486;2022-12-18T01:16:18;4.73;;;4.53;;
18138;SDS011;9195;53.176;9.486;2022-12-18T01:18:44;4.80;;;4.60;;
18138;SDS011;9195;53.176;9.486;2022-12-18T01:21:12;5.03;;;4.83;;
18138;SDS011;9195;53.176;9.486;2022-12-18T01:23:39;4.80;;;4.60;;
18138;SDS011;9195;53.176;9.486;2022-12-18T01:26:06;4.90;;;4.70;;
18138;SDS011;9195;53.176;9.486;2022-12-18T01:28:33;4.93;;;4.73;;
18138;SDS011;9195;53.176;9.486;2022-12-18T01:31:09;5.20;;;5.00;;
18138;SDS011;9195;53.176;9.486;2022-12-18T01:33:40;4.90;;;4.70;;
18138;SDS011;9195;53.176;9.486;2022-12-18T01:36:06;4.53;;;4.33;;
18138;SDS011;9195;53.176;9.486;2022-12-18T01:38:32;5.00;;;4.80;;
18138;SDS011;9195;53.176;9.486;2022-12-18T01:40:59;4.97;;;4.77;;
18138;SDS011;9195;53.176;9.486;2022-12-18T01:43:44;4.80;;;4.60;;
18138;SDS011;9195;53.176;9.486;2022-12-18T01:46:16;5.00;;;4.80;;
18138;SDS011;9195;53.176;9.486;2022-12-18T01:48:42;5.30;;;5.10;;
18138;SDS011;9195;53.176;9.486;2022-12-18T01:51:10;5.10;;;4.90;;
18138;SDS011;9195;53.176;9.486;2022-12-18T01:53:37;5.27;;;5.07;;
18138;SDS011;9195;53.176;9.486;2022-12-18T01:56:05;5.10;;;4.90;;
18138;SDS011;9195;53.176;9.486;2022-12-18T02:01:09;5.07;;;4.87;;
18138;SDS011;9195;53.176;9.486;2022-12-18T02:03:36;5.20;;;5.00;;
18138;SDS011;9195;53.176;9.486;2022-12-18T02:08:48;4.90;;;4.70;;
18138;SDS011;9195;53.176;9.486;2022-12-18T02:13:53;5.10;;;4.90;;
18138;SDS011;9195;53.176;9.486;2022-12-18T02:16:39;5.00;;;4.80;;
18138;SDS011;9195;53.176;9.486;2022-12-18T02:21:49;5.00;;;4.80;;
18138;SDS011;9195;53.176;9.486;2022-12-18T02:26:59;5.20;;;5.00;;
18138;SDS011;9195;53.176;9.486;2022-12-18T02:32:25;5.20;;;5.00;;
18138;SDS011;9195;53.176;9.486;2022-12-18T02:34:54;5.00;;;4.80;;
18138;SDS011;9195;53.176;9.486;2022-12-18T02:37:22;5.13;;;4.93;;
18138;SDS011;9195;53.176;9.486;2022-12-18T02:39:50;5.50;;;5.30;;
18138;SDS011;9195;53.176;9.486;2022-12-18T02:42:18;5.10;;;4.90;;
18138;SDS011;9195;53.176;9.486;2022-12-18T02:44:44;5.10;;;4.90;;
18138;SDS011;9195;53.176;9.486;2022-12-18T02:47:12;5.20;;;5.00;;
18138;SDS011;9195;53.176;9.486;2022-12-18T02:58:25;5.10;;;4.90;;
18138;SDS011;9195;53.176;9.486;2022-12-18T03:00:20;5.33;;;5.13;;
18138;SDS011;9195;53.176;9.486;2022-12-18T03:06:00;5.00;;;4.80;;
18138;SDS011;9195;53.176;9.486;2022-12-18T03:08:35;5.30;;;5.10;;
18138;SDS011;9195;53.176;9.486;2022-12-18T03:11:08;5.43;;;5.23;;
18138;SDS011;9195;53.176;9.486;2022-12-18T03:13:37;5.20;;;5.00;;
18138;SDS011;9195;53.176;9.486;2022-12-18T03:16:15;5.03;;;4.83;;
18138;SDS011;9195;53.176;9.486;2022-12-18T03:18:49;5.23;;;5.03;;
18138;SDS011;9195;53.176;9.486;2022-12-18T03:21:20;5.33;;;5.13;;
18138;SDS011;9195;53.176;9.486;2022-12-18T03:23:48;5.40;;;5.20;;
18138;SDS011;9195;53.176;9.486;2022-12-18T03:26:17;5.47;;;5.27;;
18138;SDS011;9195;53.176;9.486;2022-12-18T03:28:47;5.37;;;5.17;;
18138;SDS011;9195;53.176;9.486;2022-12-18T03:31:20;5.23;;;5.03;;
18138;SDS011;9195;53.176;9.486;2022-12-18T03:33:55;5.10;;;4.90;;
18138;SDS011;9195;53.176;9.486;2022-12-18T03:36:23;5.03;;;4.83;;
18138;SDS011;9195;53.176;9.486;2022-12-18T03:38:50;5.20;;;5.00;;
18138;SDS011;9195;53.176;9.486;2022-12-18T03:49:25;5.00;;;4.80;;
18138;SDS011;9195;53.176;9.486;2022-12-18T03:52:05;5.13;;;4.93;;
18138;SDS011;9195;53.176;9.486;2022-12-18T03:54:51;5.07;;;4.87;;
18138;SDS011;9195;53.176;9.486;2022-12-18T03:57:22;5.07;;;4.87;;
18138;SDS011;9195;53.176;9.486;2022-12-18T03:59:54;5.03;;;4.83;;
18138;SDS011;9195;53.176;9.486;2022-12-18T04:02:26;5.40;;;5.20;;
18138;SDS011;9195;53.176;9.486;2022-12-18T04:04:53;4.90;;;4.70;;
18138;SDS011;9195;53.176;9.486;2022-12-18T04:07:24;5.20;;;5.00;;
18138;SDS011;9195;53.176;9.486;2022-12-18T04:09:50;5.40;;;5.20;;
18138;SDS011;9195;53.176;9.486;2022-12-18T04:12:19;5.27;;;5.07;;
18138;SDS011;9195;53.176;9.486;2022-12-18T04:14:45;5.30;;;5.10;;
18138;SDS011;9195;53.176;9.486;2022-12-18T04:17:10;5.50;;;5.30;;
18138;SDS011;9195;53.176;9.486;2022-12-18T04:19:36;5.17;;;4.97;;
18138;SDS011;9195;53.176;9.486;2022-12-18T04:22:02;5.30;;;5.10;;
18138;SDS011;9195;53.176;9.486;2022-12-18T04:24:27;5.10;;;4.90;;
18138;SDS011;9195;53.176;9.486;2022-12-18T04:26:53;5.10;;;4.90;;
18138;SDS011;9195;53.176;9.486;2022-12-18T04:29:19;5.30;;;5.10;;
18138;SDS011;9195;53.176;9.486;2022-12-18T04:31:45;5.60;;;5.40;;
18138;SDS011;9195;53.176;9.486;2022-12-18T04:34:10;5.47;;;5.27;;
18138;SDS011;9195;53.176;9.486;2022-12-18T04:36:36;5.20;;;5.00;;
18138;SDS011;9195;53.176;9.486;2022-12-18T04:39:02;4.90;;;4.70;;
18138;SDS011;9195;53.176;9.486;2022-12-18T04:41:27;5.40;;;5.20;;
18138;SDS011;9195;53.176;9.486;2022-12-18T04:43:53;5.33;;;5.13;;
18138;SDS011;9195;53.176;9.486;2022-12-18T04:46:18;5.60;;;5.40;;
18138;SDS011;9195;53.176;9.486;2022-12-18T04:48:45;5.60;;;5.40;;
18138;SDS011;9195;53.176;9.486;2022-12-18T04:51:11;5.40;;;5.20;;
18138;SDS011;9195;53.176;9.486;2022-12-18T04:53:37;5.50;;;5.30;;
18138;SDS011;9195;53.176;9.486;2022-12-18T04:56:04;5.30;;;5.10;;
18138;SDS011;9195;53.176;9.486;2022-12-18T04:58:37;5.30;;;5.10;;
18138;SDS011;9195;53.176;9.486;2022-12-18T05:01:04;5.20;;;5.00;;
18138;SDS011;9195;53.176;9.486;2022-12-18T05:03:29;5.40;;;5.20;;
18138;SDS011;9195;53.176;9.486;2022-12-18T05:05:56;5.07;;;4.87;;
18138;SDS011;9195;53.176;9.486;2022-12-18T05:08:21;4.60;;;4.40;;
18138;SDS011;9195;53.176;9.486;2022-12-18T05:10:47;5.20;;;5.00;;
18138;SDS011;9195;53.176;9.486;2022-12-18T05:13:13;5.00;;;4.80;;
18138;SDS011;9195;53.176;9.486;2022-12-18T05:15:38;4.90;;;4.70;;
18138;SDS011;9195;53.176;9.486;2022-12-18T05:18:04;5.10;;;4.90;;
18138;SDS011;9195;53.176;9.486;2022-12-18T05:20:30;5.33;;;5.13;;
18138;SDS011;9195;53.176;9.486;2022-12-18T05:22:56;5.00;;;4.80;;
18138;SDS011;9195;53.176;9.486;2022-12-18T05:25:22;5.50;;;5.30;;
18138;SDS011;9195;53.176;9.486;2022-12-18T05:27:48;4.93;;;4.73;;
18138;SDS011;9195;53.176;9.486;2022-12-18T05:30:14;5.17;;;4.97;;
18138;SDS011;9195;53.176;9.486;2022-12-18T05:32:40;5.40;;;5.20;;
18138;SDS011;9195;53.176;9.486;2022-12-18T05:35:07;5.40;;;5.20;;
18138;SDS011;9195;53.176;9.486;2022-12-18T05:37:34;5.37;;;5.17;;
18138;SDS011;9195;53.176;9.486;2022-12-18T05:40:01;5.40;;;5.20;;
18138;SDS011;9195;53.176;9.486;2022-12-18T05:42:27;5.07;;;4.87;;
18138;SDS011;9195;53.176;9.486;2022-12-18T05:44:53;5.40;;;5.20;;
18138;SDS011;9195;53.176;9.486;2022-12-18T05:47:18;5.40;;;5.20;;
18138;SDS011;9195;53.176;9.486;2022-12-18T05:49:44;5.17;;;4.97;;
18138;SDS011;9195;53.176;9.486;2022-12-18T05:52:10;5.40;;;5.20;;
18138;SDS011;9195;53.176;9.486;2022-12-18T05:54:35;5.20;;;5.00;;
18138;SDS011;9195;53.176;9.486;2022-12-18T05:57:01;5.17;;;4.97;;
18138;SDS011;9195;53.176;9.486;2022-12-18T05:59:26;5.50;;;5.30;;
18138;SDS011;9195;53.176;9.486;2022-12-18T06:01:52;5.47;;;5.27;;
18138;SDS011;9195;53.176;9.486;2022-12-18T06:04:18;5.40;;;5.20;;
18138;SDS011;9195;53.176;9.486;2022-12-18T06:06:43;5.60;;;5.40;;
18138;SDS011;9195;53.176;9.486;2022-12-18T06:09:09;5.53;;;5.33;;
18138;SDS011;9195;53.176;9.486;2022-12-18T06:11:38;5.23;;;5.03;;
18138;SDS011;9195;53.176;9.486;2022-12-18T06:14:04;5.37;;;5.17;;
18138;SDS011;9195;53.176;9.486;2022-12-18T06:16:31;4.70;;;4.50;;
18138;SDS011;9195;53.176;9.486;2022-12-18T06:18:57;5.00;;;4.80;;
18138;SDS011;9195;53.176;9.486;2022-12-18T06:21:28;4.80;;;4.60;;
18138;SDS011;9195;53.176;9.486;2022-12-18T06:23:54;4.87;;;4.67;;
18138;SDS011;9195;53.176;9.486;2022-12-18T06:26:19;4.90;;;4.70;;
18138;SDS011;9195;53.176;9.486;2022-12-18T06:28:45;4.83;;;4.63;;
18138;SDS011;9195;53.176;9.486;2022-12-18T06:31:11;5.00;;;4.80;;
18138;SDS011;9195;53.176;9.486;2022-12-18T06:33:37;5.10;;;4.90;;
18138;SDS011;9195;53.176;9.486;2022-12-18T06:36:04;5.10;;;4.90;;
18138;SDS011;9195;53.176;9.486;2022-12-18T06:38:31;5.30;;;5.10;;
18138;SDS011;9195;53.176;9.486;2022-12-18T06:40:57;4.67;;;4.47;;
18138;SDS011;9195;53.176;9.486;2022-12-18T06:43:23;4.80;;;4.60;;
18138;SDS011;9195;53.176;9.486;2022-12-18T06:45:48;4.93;;;4.73;;
18138;SDS011;9195;53.176;9.486;2022-12-18T06:48:18;4.57;;;4.37;;
18138;SDS011;9195;53.176;9.486;2022-12-18T06:50:44;4.43;;;4.23;;
18138;SDS011;9195;53.176;9.486;2022-12-18T06:53:10;4.63;;;4.43;;
18138;SDS011;9195;53.176;9.486;2022-12-18T06:55:36;4.40;;;4.20;;
18138;SDS011;9195;53.176;9.486;2022-12-18T06:58:01;4.43;;;4.23;;
18138;SDS011;9195;53.176;9.486;2022-12-18T07:00:27;4.50;;;4.30;;
18138;SDS011;9195;53.176;9.486;2022-12-18T07:02:52;4.50;;;4.30;;
18138;SDS011;9195;53.176;9.486;2022-12-18T07:05:18;4.77;;;4.57;;
18138;SDS011;9195;53.176;9.486;2022-12-18T07:07:44;4.40;;;4.20;;
18138;SDS011;9195;53.176;9.486;2022-12-18T07:10:09;4.53;;;4.33;;
18138;SDS011;9195;53.176;9.486;2022-12-18T07:12:35;4.40;;;4.20;;
18138;SDS011;9195;53.176;9.486;2022-12-18T07:15:00;4.43;;;4.23;;
18138;SDS011;9195;53.176;9.486;2022-12-18T07:17:26;4.40;;;4.20;;
18138;SDS011;9195;53.176;9.486;2022-12-18T07:19:52;4.07;;;3.97;;
18138;SDS011;9195;53.176;9.486;2022-12-18T07:22:18;4.13;;;4.03;;
18138;SDS011;9195;53.176;9.486;2022-12-18T07:24:43;4.33;;;4.20;;
18138;SDS011;9195;53.176;9.486;2022-12-18T07:27:09;4.40;;;4.20;;
18138;SDS011;9195;53.176;9.486;2022-12-18T07:29:34;4.43;;;4.23;;
18138;SDS011;9195;53.176;9.486;2022-12-18T07:32:00;4.40;;;4.20;;
18138;SDS011;9195;53.176;9.486;2022-12-18T07:34:26;4.10;;;4.00;;
18138;SDS011;9195;53.176;9.486;2022-12-18T07:36:51;4.27;;;4.10;;
18138;SDS011;9195;53.176;9.486;2022-12-18T07:39:17;4.33;;;4.13;;
18138;SDS011;9195;53.176;9.486;2022-12-18T07:41:42;4.50;;;4.30;;
18138;SDS011;9195;53.176;9.486;2022-12-18T07:44:11;4.20;;;4.10;;
18138;SDS011;9195;53.176;9.486;2022-12-18T07:46:37;4.20;;;4.10;;
18138;SDS011;9195;53.176;9.486;2022-12-18T07:49:03;4.23;;;4.10;;
18138;SDS011;9195;53.176;9.486;2022-12-18T07:51:29;4.10;;;4.00;;
18138;SDS011;9195;53.176;9.486;2022-12-18T07:53:55;4.13;;;4.03;;
18138;SDS011;9195;53.176;9.486;2022-12-18T07:56:22;4.50;;;4.30;;
18138;SDS011;9195;53.176;9.486;2022-12-18T07:58:47;4.40;;;4.20;;
18138;SDS011;9195;53.176;9.486;2022-12-18T08:01:13;4.70;;;4.50;;
18138;SDS011;9195;53.176;9.486;2022-12-18T08:03:39;4.53;;;4.33;;
18138;SDS011;9195;53.176;9.486;2022-12-18T08:06:06;4.60;;;4.40;;
18138;SDS011;9195;53.176;9.486;2022-12-18T08:08:34;4.60;;;4.40;;
18138;SDS011;9195;53.176;9.486;2022-12-18T08:11:00;4.17;;;4.07;;
18138;SDS011;9195;53.176;9.486;2022-12-18T08:13:26;4.40;;;4.20;;
18138;SDS011;9195;53.176;9.486;2022-12-18T08:15:58;4.70;;;4.50;;
18138;SDS011;9195;53.176;9.486;2022-12-18T08:18:26;4.30;;;4.10;;
18138;SDS011;9195;53.176;9.486;2022-12-18T08:20:52;4.47;;;4.27;;
18138;SDS011;9195;53.176;9.486;2022-12-18T08:23:17;4.53;;;4.33;;
18138;SDS011;9195;53.176;9.486;2022-12-18T08:25:43;4.70;;;4.50;;
18138;SDS011;9195;53.176;9.486;2022-12-18T08:28:09;4.60;;;4.40;;
18138;SDS011;9195;53.176;9.486;2022-12-18T08:30:35;4.80;;;4.60;;
18138;SDS011;9195;53.176;9.486;2022-12-18T08:33:00;4.73;;;4.53;;
18138;SDS011;9195;53.176;9.486;2022-12-18T08:35:26;4.87;;;4.67;;
18138;SDS011;9195;53.176;9.486;2022-12-18T08:37:52;5.60;;;5.40;;
18138;SDS011;9195;53.176;9.486;2022-12-18T08:40:17;5.40;;;5.20;;
18138;SDS011;9195;53.176;9.486;2022-12-18T08:42:43;5.40;;;5.20;;
18138;SDS011;9195;53.176;9.486;2022-12-18T08:45:27;5.60;;;5.40;;
18138;SDS011;9195;53.176;9.486;2022-12-18T08:47:52;5.70;;;5.50;;
18138;SDS011;9195;53.176;9.486;2022-12-18T08:50:19;6.00;;;5.80;;
18138;SDS011;9195;53.176;9.486;2022-12-18T08:52:45;6.20;;;6.00;;
18138;SDS011;9195;53.176;9.486;2022-12-18T08:55:10;6.43;;;6.23;;
18138;SDS011;9195;53.176;9.486;2022-12-18T08:57:36;6.40;;;6.20;;
18138;SDS011;9195;53.176;9.486;2022-12-18T09:00:02;6.30;;;6.10;;
18138;SDS011;9195;53.176;9.486;2022-12-18T09:02:28;6.70;;;6.40;;
18138;SDS011;9195;53.176;9.486;2022-12-18T09:04:54;7.40;;;7.10;;
18138;SDS011;9195;53.176;9.486;2022-12-18T09:07:19;7.40;;;7.10;;
18138;SDS011;9195;53.176;9.486;2022-12-18T09:09:45;7.47;;;7.17;;
18138;SDS011;9195;53.176;9.486;2022-12-18T09:12:10;7.47;;;7.17;;
18138;SDS011;9195;53.176;9.486;2022-12-18T09:14:36;7.47;;;7.17;;
18138;SDS011;9195;53.176;9.486;2022-12-18T09:17:02;7.67;;;7.37;;
18138;SDS011;9195;53.176;9.486;2022-12-18T09:19:27;7.50;;;7.20;;
18138;SDS011;9195;53.176;9.486;2022-12-18T09:21:53;7.50;;;7.20;;
18138;SDS011;9195;53.176;9.486;2022-12-18T09:24:18;7.60;;;7.30;;
18138;SDS011;9195;53.176;9.486;2022-12-18T09:26:44;7.43;;;7.13;;
18138;SDS011;9195;53.176;9.486;2022-12-18T09:29:10;7.73;;;7.43;;
18138;SDS011;9195;53.176;9.486;2022-12-18T09:31:36;7.70;;;7.40;;
18138;SDS011;9195;53.176;9.486;2022-12-18T09:34:03;7.90;;;7.60;;
18138;SDS011;9195;53.176;9.486;2022-12-18T09:36:29;7.97;;;7.67;;
18138;SDS011;9195;53.176;9.486;2022-12-18T09:38:54;8.53;;;8.23;;
18138;SDS011;9195;53.176;9.486;2022-12-18T09:41:32;8.60;;;8.30;;
18138;SDS011;9195;53.176;9.486;2022-12-18T09:44:21;9.17;;;8.77;;
18138;SDS011;9195;53.176;9.486;2022-12-18T09:46:49;8.50;;;8.20;;
18138;SDS011;9195;53.176;9.486;2022-12-18T09:49:26;8.90;;;8.50;;
18138;SDS011;9195;53.176;9.486;2022-12-18T09:52:05;9.00;;;8.60;;
18138;SDS011;9195;53.176;9.486;2022-12-18T09:54:39;9.30;;;8.90;;
18138;SDS011;9195;53.176;9.486;2022-12-18T09:57:10;9.47;;;9.07;;
18138;SDS011;9195;53.176;9.486;2022-12-18T09:59:39;9.20;;;8.80;;
18138;SDS011;9195;53.176;9.486;2022-12-18T10:02:14;9.60;;;9.20;;
18138;SDS011;9195;53.176;9.486;2022-12-18T10:04:41;9.40;;;9.00;;
18138;SDS011;9195;53.176;9.486;2022-12-18T10:07:15;9.13;;;8.73;;
18138;SDS011;9195;53.176;9.486;2022-12-18T10:09:53;9.43;;;9.03;;
18138;SDS011;9195;53.176;9.486;2022-12-18T10:12:43;9.27;;;8.87;;
18138;SDS011;9195;53.176;9.486;2022-12-18T10:15:39;9.37;;;8.97;;
18138;SDS011;9195;53.176;9.486;2022-12-18T10:26:38;9.23;;;8.83;;
18138;SDS011;9195;53.176;9.486;2022-12-18T10:29:12;9.20;;;8.80;;
18138;SDS011;9195;53.176;9.486;2022-12-18T10:31:38;9.70;;;9.30;;
18138;SDS011;9195;53.176;9.486;2022-12-18T10:34:08;9.53;;;9.13;;
18138;SDS011;9195;53.176;9.486;2022-12-18T10:36:35;9.80;;;9.40;;
18138;SDS011;9195;53.176;9.486;2022-12-18T10:39:18;9.77;;;9.37;;
18138;SDS011;9195;53.176;9.486;2022-12-18T10:41:47;9.90;;;9.50;;
18138;SDS011;9195;53.176;9.486;2022-12-18T10:44:16;9.70;;;9.30;;
18138;SDS011;9195;53.176;9.486;2022-12-18T10:46:48;10.10;;;9.70;;
18138;SDS011;9195;53.176;9.486;2022-12-18T10:49:29;9.73;;;9.33;;
18138;SDS011;9195;53.176;9.486;2022-12-18T10:52:04;9.80;;;9.40;;
18138;SDS011;9195;53.176;9.486;2022-12-18T10:54:32;9.93;;;9.53;;
18138;SDS011;9195;53.176;9.486;2022-12-18T11:00:24;10.10;;;9.70;;
18138;SDS011;9195;53.176;9.486;2022-12-18T11:02:53;10.10;;;9.70;;
18138;SDS011;9195;53.176;9.486;2022-12-18T11:07:56;9.70;;;9.30;;
18138;SDS011;9195;53.176;9.486;2022-12-18T11:10:32;10.40;;;10.00;;
18138;SDS011;9195;53.176;9.486;2022-12-18T11:13:10;10.43;;;10.03;;
18138;SDS011;9195;53.176;9.486;2022-12-18T11:15:45;10.47;;;10.07;;
18138;SDS011;9195;53.176;9.486;2022-12-18T11:20:50;10.40;;;10.00;;
18138;SDS011;9195;53.176;9.486;2022-12-18T11:23:21;10.50;;;10.10;;
18138;SDS011;9195;53.176;9.486;2022-12-18T11:25:54;10.10;;;9.70;;
18138;SDS011;9195;53.176;9.486;2022-12-18T11:28:39;10.27;;;9.87;;
18138;SDS011;9195;53.176;9.486;2022-12-18T11:34:01;10.70;;;10.30;;
18138;SDS011;9195;53.176;9.486;2022-12-18T11:36:44;10.57;;;10.17;;
18138;SDS011;9195;53.176;9.486;2022-12-18T11:41:50;11.00;;;10.50;;
18138;SDS011;9195;53.176;9.486;2022-12-18T11:44:46;11.13;;;10.63;;
18138;SDS011;9195;53.176;9.486;2022-12-18T11:47:15;10.70;;;10.30;;
18138;SDS011;9195;53.176;9.486;2022-12-18T11:49:44;11.00;;;10.50;;
18138;SDS011;9195;53.176;9.486;2022-12-18T11:52:16;11.00;;;10.50;;
18138;SDS011;9195;53.176;9.486;2022-12-18T11:54:52;11.50;;;11.00;;
18138;SDS011;9195;53.176;9.486;2022-12-18T11:57:26;11.30;;;10.80;;
18138;SDS011;9195;53.176;9.486;2022-12-18T12:00:17;11.10;;;10.60;;
18138;SDS011;9195;53.176;9.486;2022-12-18T12:05:24;12.20;;;11.70;;
18138;SDS011;9195;53.176;9.486;2022-12-18T12:08:07;12.40;;;11.90;;
18138;SDS011;9195;53.176;9.486;2022-12-18T12:10:46;11.40;;;10.90;;
18138;SDS011;9195;53.176;9.486;2022-12-18T12:13:34;11.40;;;10.90;;
18138;SDS011;9195;53.176;9.486;2022-12-18T12:16:34;11.10;;;10.60;;
18138;SDS011;9195;53.176;9.486;2022-12-18T12:19:30;10.90;;;10.43;;
18138;SDS011;9195;53.176;9.486;2022-12-18T12:40:44;10.60;;;10.20;;
18138;SDS011;9195;53.176;9.486;2022-12-18T12:43:22;10.30;;;9.90;;
18138;SDS011;9195;53.176;9.486;2022-12-18T12:45:55;10.27;;;9.87;;
18138;SDS011;9195;53.176;9.486;2022-12-18T12:48:45;10.47;;;10.07;;
18138;SDS011;9195;53.176;9.486;2022-12-18T12:51:24;10.30;;;9.90;;
18138;SDS011;9195;53.176;9.486;2022-12-18T12:53:56;9.97;;;9.57;;
18138;SDS011;9195;53.176;9.486;2022-12-18T12:56:24;9.80;;;9.40;;
18138;SDS011;9195;53.176;9.486;2022-12-18T12:59:05;10.00;;;9.60;;
18138;SDS011;9195;53.176;9.486;2022-12-18T13:01:53;10.03;;;9.63;;
18138;SDS011;9195;53.176;9.486;2022-12-18T13:04:36;9.80;;;9.40;;
18138;SDS011;9195;53.176;9.486;2022-12-18T13:12:46;9.87;;;9.47;;
18138;SDS011;9195;53.176;9.486;2022-12-18T13:18:05;10.07;;;9.67;;
18138;SDS011;9195;53.176;9.486;2022-12-18T13:20:41;9.60;;;9.20;;
18138;SDS011;9195;53.176;9.486;2022-12-18T13:25:48;9.40;;;9.00;;
18138;SDS011;9195;53.176;9.486;2022-12-18T13:30:59;10.07;;;9.67;;
18138;SDS011;9195;53.176;9.486;2022-12-18T13:35:53;10.13;;;9.73;;
18138;SDS011;9195;53.176;9.486;2022-12-18T13:40:56;9.73;;;9.33;;
18138;SDS011;9195;53.176;9.486;2022-12-18T13:51:23;9.70;;;9.30;;
18138;SDS011;9195;53.176;9.486;2022-12-18T13:54:17;9.87;;;9.47;;
18138;SDS011;9195;53.176;9.486;2022-12-18T13:56:47;9.83;;;9.43;;
18138;SDS011;9195;53.176;9.486;2022-12-18T13:59:18;9.90;;;9.50;;
18138;SDS011;9195;53.176;9.486;2022-12-18T14:02:14;9.10;;;8.70;;
18138;SDS011;9195;53.176;9.486;2022-12-18T14:04:44;9.73;;;9.33;;
18138;SDS011;9195;53.176;9.486;2022-12-18T14:07:11;9.73;;;9.33;;
18138;SDS011;9195;53.176;9.486;2022-12-18T14:09:41;9.60;;;9.20;;
18138;SDS011;9195;53.176;9.486;2022-12-18T14:12:14;9.87;;;9.47;;
18138;SDS011;9195;53.176;9.486;2022-12-18T14:15:02;10.00;;;9.60;;
18138;SDS011;9195;53.176;9.486;2022-12-18T14:17:29;9.73;;;9.33;;
18138;SDS011;9195;53.176;9.486;2022-12-18T14:19:56;9.83;;;9.43;;
18138;SDS011;9195;53.176;9.486;2022-12-18T14:22:25;9.63;;;9.23;;
18138;SDS011;9195;53.176;9.486;2022-12-18T14:27:41;9.60;;;9.20;;
18138;SDS011;9195;53.176;9.486;2022-12-18T14:33:09;9.57;;;9.17;;
18138;SDS011;9195;53.176;9.486;2022-12-18T14:35:38;9.20;;;8.80;;
18138;SDS011;9195;53.176;9.486;2022-12-18T14:38:19;9.60;;;9.20;;
18138;SDS011;9195;53.176;9.486;2022-12-18T14:43:23;9.30;;;8.90;;
18138;SDS011;9195;53.176;9.486;2022-12-18T14:45:48;9.13;;;8.73;;
18138;SDS011;9195;53.176;9.486;2022-12-18T14:48:16;9.10;;;8.70;;
18138;SDS011;9195;53.176;9.486;2022-12-18T14:50:57;9.00;;;8.60;;
18138;SDS011;9195;53.176;9.486;2022-12-18T14:53:32;8.67;;;8.37;;
18138;SDS011;9195;53.176;9.486;2022-12-18T14:56:00;8.97;;;8.57;;
18138;SDS011;9195;53.176;9.486;2022-12-18T14:58:28;9.10;;;8.70;;
18138;SDS011;9195;53.176;9.486;2022-12-18T15:00:53;8.70;;;8.40;;
18138;SDS011;9195;53.176;9.486;2022-12-18T15:03:20;8.80;;;8.40;;
18138;SDS011;9195;53.176;9.486;2022-12-18T15:05:46;8.40;;;8.10;;
18138;SDS011;9195;53.176;9.486;2022-12-18T15:08:29;9.00;;;8.60;;
18138;SDS011;9195;53.176;9.486;2022-12-18T15:11:23;8.37;;;8.07;;
18138;SDS011;9195;53.176;9.486;2022-12-18T15:13:51;8.93;;;8.53;;
18138;SDS011;9195;53.176;9.486;2022-12-18T15:16:17;8.43;;;8.13;;
18138;SDS011;9195;53.176;9.486;2022-12-18T15:18:42;8.40;;;8.10;;
18138;SDS011;9195;53.176;9.486;2022-12-18T15:21:10;8.00;;;7.70;;
18138;SDS011;9195;53.176;9.486;2022-12-18T15:26:14;7.70;;;7.40;;
18138;SDS011;9195;53.176;9.486;2022-12-18T15:36:22;7.73;;;7.43;;
18138;SDS011;9195;53.176;9.486;2022-12-18T15:38:52;7.80;;;7.50;;
18138;SDS011;9195;53.176;9.486;2022-12-18T15:41:20;7.60;;;7.30;;
18138;SDS011;9195;53.176;9.486;2022-12-18T15:43:47;7.30;;;7.00;;
18138;SDS011;9195;53.176;9.486;2022-12-18T15:46:16;7.33;;;7.03;;
18138;SDS011;9195;53.176;9.486;2022-12-18T15:48:56;7.83;;;7.53;;
18138;SDS011;9195;53.176;9.486;2022-12-18T15:51:32;7.43;;;7.13;;
18138;SDS011;9195;53.176;9.486;2022-12-18T15:54:01;7.40;;;7.10;;
18138;SDS011;9195;53.176;9.486;2022-12-18T15:56:28;7.40;;;7.10;;
18138;SDS011;9195;53.176;9.486;2022-12-18T15:59:14;7.77;;;7.47;;
18138;SDS011;9195;53.176;9.486;2022-12-18T16:01:41;7.53;;;7.23;;
18138;SDS011;9195;53.176;9.486;2022-12-18T16:04:11;7.23;;;6.93;;
18138;SDS011;9195;53.176;9.486;2022-12-18T16:06:38;7.70;;;7.40;;
18138;SDS011;9195;53.176;9.486;2022-12-18T16:09:04;7.00;;;6.70;;
18138;SDS011;9195;53.176;9.486;2022-12-18T16:11:31;7.80;;;7.50;;
18138;SDS011;9195;53.176;9.486;2022-12-18T16:14:27;7.70;;;7.40;;
18138;SDS011;9195;53.176;9.486;2022-12-18T16:16:53;7.47;;;7.17;;
18138;SDS011;9195;53.176;9.486;2022-12-18T16:19:21;8.00;;;7.70;;
18138;SDS011;9195;53.176;9.486;2022-12-18T16:21:48;7.73;;;7.43;;
18138;SDS011;9195;53.176;9.486;2022-12-18T16:24:16;7.50;;;7.20;;
18138;SDS011;9195;53.176;9.486;2022-12-18T16:26:43;7.40;;;7.10;;
18138;SDS011;9195;53.176;9.486;2022-12-18T16:29:09;7.30;;;7.00;;
18138;SDS011;9195;53.176;9.486;2022-12-18T16:31:35;7.20;;;6.90;;
18138;SDS011;9195;53.176;9.486;2022-12-18T16:36:50;7.43;;;7.13;;
18138;SDS011;9195;53.176;9.486;2022-12-18T16:39:18;7.50;;;7.20;;
18138;SDS011;9195;53.176;9.486;2022-12-18T16:41:45;7.40;;;7.10;;
18138;SDS011;9195;53.176;9.486;2022-12-18T16:44:11;7.03;;;6.73;;
18138;SDS011;9195;53.176;9.486;2022-12-18T16:46:37;7.50;;;7.20;;
18138;SDS011;9195;53.176;9.486;2022-12-18T16:49:04;7.80;;;7.50;;
18138;SDS011;9195;53.176;9.486;2022-12-18T16:51:30;7.10;;;6.80;;
18138;SDS011;9195;53.176;9.486;2022-12-18T16:53:56;7.60;;;7.30;;
18138;SDS011;9195;53.176;9.486;2022-12-18T16:56:22;7.10;;;6.80;;
18138;SDS011;9195;53.176;9.486;2022-12-18T16:58:55;7.47;;;7.17;;
18138;SDS011;9195;53.176;9.486;2022-12-18T17:01:22;7.50;;;7.20;;
18138;SDS011;9195;53.176;9.486;2022-12-18T17:04:02;7.30;;;7.00;;
18138;SDS011;9195;53.176;9.486;2022-12-18T17:06:30;7.00;;;6.70;;
18138;SDS011;9195;53.176;9.486;2022-12-18T17:08:58;6.63;;;6.33;;
18138;SDS011;9195;53.176;9.486;2022-12-18T17:11:25;7.13;;;6.83;;
18138;SDS011;9195;53.176;9.486;2022-12-18T17:13:52;6.90;;;6.60;;
18138;SDS011;9195;53.176;9.486;2022-12-18T17:16:18;6.20;;;6.00;;
18138;SDS011;9195;53.176;9.486;2022-12-18T17:18:43;7.40;;;7.10;;
18138;SDS011;9195;53.176;9.486;2022-12-18T17:21:09;6.80;;;6.50;;